Time;durP1;ratioP1;P1;durP2;ratioP2;P2;SDS_P1;SDS_P2;PMS_P1;PMS_P2;Temp;Humidity;BMP_temperature;BMP_pressure;BME280_temperature;BME280_humidity;BME280_pressure;Samples;Min_cycle;Max_cycle;Signal;HPM_P1;HPM_P2
2022/04/14 00:00:45;;;;;;;47.38;22.92;;;;;;;24.96;58.48;97599.03;4907937;29;20058;-68
2022/04/14 00:03:26;;;;;;;62.15;23.08;;;;;;;24.95;58.79;97597.38;4904548;29;20062;-68
2022/04/14 00:06:16;;;;;;;46.40;22.35;;;;;;;24.96;61.24;97593.75;4909589;29;20119;-67
2022/04/14 00:08:58;;;;;;;52.03;21.23;;;;;;;24.88;57.86;97603.41;4908819;29;20432;-67
2022/04/14 00:11:53;;;;;;;47.38;21.08;;;;;;;24.89;59.65;97597.16;4903098;29;20076;-67
2022/04/14 00:14:28;;;;;;;45.80;19.63;;;;;;;24.89;54.15;97602.44;4908994;29;20647;-67
2022/04/14 00:17:17;;;;;;;50.97;19.23;;;;;;;24.86;56.50;97597.47;4909198;29;20484;-67
2022/04/14 00:20:07;;;;;;;43.80;17.00;;;;;;;24.84;58.41;97595.00;4907678;29;20064;-67
2022/04/14 00:22:48;;;;;;;45.47;18.70;;;;;;;24.77;54.91;97600.09;4909408;29;20120;-67
2022/04/14 00:25:38;;;;;;;63.67;18.05;;;;;;;24.75;54.42;97594.16;4908241;29;20128;-67
2022/04/14 00:28:19;;;;;;;51.58;19.63;;;;;;;24.71;54.81;97598.13;4909516;29;20499;-67
2022/04/14 00:31:15;;;;;;;46.40;19.25;;;;;;;24.70;54.50;97607.00;4905582;28;20048;-66
2022/04/14 00:34:03;;;;;;;63.33;22.67;;;;;;;24.68;53.30;97606.31;4906178;29;20054;-66
2022/04/14 00:36:52;;;;;;;43.10;18.38;;;;;;;24.74;58.91;97610.16;4909311;29;20610;-67
2022/04/14 00:39:33;;;;;;;53.60;21.63;;;;;;;24.67;53.40;97612.56;4908096;29;20083;-67
2022/04/14 00:42:23;;;;;;;38.33;20.17;;;;;;;24.76;58.41;97622.16;4909570;29;20048;-67
2022/04/14 00:45:10;;;;;;;48.65;22.55;;;;;;;24.62;54.61;97622.78;4909096;29;20048;-67
2022/04/14 00:48:01;;;;;;;55.97;24.30;;;;;;;24.54;55.75;97633.28;4908888;29;20060;-66
2022/04/14 00:50:43;;;;;;;55.83;24.10;;;;;;;24.49;54.26;97638.22;4908518;29;20448;-66
2022/04/14 00:53:32;;;;;;;58.28;24.33;;;;;;;24.50;55.76;97646.94;4907013;29;20139;-66
2022/04/14 00:56:14;;;;;;;53.95;22.40;;;;;;;24.60;57.08;97655.53;4908834;29;20445;-67
2022/04/14 00:59:03;;;;;;;40.03;20.15;;;;;;;24.59;57.38;97659.13;4911016;29;20048;-67
2022/04/14 01:01:51;;;;;;;37.72;17.60;;;;;;;24.62;59.28;97664.09;4908887;29;20056;-67
2022/04/14 01:04:34;;;;;;;37.47;19.17;;;;;;;24.60;55.87;97666.88;4909178;29;20147;-67
2022/04/14 01:07:23;;;;;;;35.92;17.13;;;;;;;24.49;53.32;97659.28;4927662;29;20055;-67
2022/04/14 01:10:13;;;;;;;33.75;16.73;;;;;;;24.54;57.00;97674.59;4926977;29;20103;-67
2022/04/14 01:12:54;;;;;;;33.38;16.35;;;;;;;24.49;55.43;97685.63;4927489;29;20154;-67
2022/04/14 01:15:44;;;;;;;36.25;16.48;;;;;;;24.43;56.99;97683.59;4928628;29;20056;-66
2022/04/14 01:18:26;;;;;;;34.40;16.08;;;;;;;24.42;55.63;97695.94;4927537;29;20062;-67
2022/04/14 01:21:17;;;;;;;29.60;15.55;;;;;;;24.59;60.69;97701.28;4911551;29;20051;-67
2022/04/14 01:23:58;;;;;;;37.85;17.48;;;;;;;24.57;56.24;97698.84;4928530;29;20051;-67
2022/04/14 01:26:48;;;;;;;29.58;16.67;;;;;;;24.59;56.49;97694.22;4927675;29;20492;-67
2022/04/14 01:29:30;;;;;;;32.63;17.27;;;;;;;24.56;55.74;97697.19;4928058;29;20570;-67
2022/04/14 01:32:26;;;;;;;31.40;15.77;;;;;;;24.61;57.81;97697.50;4948208;28;20098;-66
2022/04/14 01:35:15;;;;;;;36.63;17.42;;;;;;;24.63;58.61;97708.72;4925276;29;20051;-67
2022/04/14 01:38:04;;;;;;;29.83;18.10;;;;;;;24.74;57.45;97697.88;4944929;29;20058;-67
2022/04/14 01:40:45;;;;;;;40.92;18.02;;;;;;;24.82;58.46;97698.94;4945332;29;20078;-67
2022/04/14 01:43:35;;;;;;;38.03;18.63;;;;;;;24.89;60.69;97702.56;4915604;29;20466;-67
2022/04/14 01:46:16;;;;;;;30.63;16.73;;;;;;;25.04;63.21;97706.28;4929405;29;20058;-67
2022/04/14 01:49:06;;;;;;;39.13;20.17;;;;;;;25.01;61.41;97711.84;4944593;29;20043;-69
2022/04/14 01:52:01;;;;;;;43.13;20.23;;;;;;;25.03;55.43;97712.53;4945818;29;20058;-68
2022/04/14 01:54:36;;;;;;;36.17;18.52;;;;;;;25.16;58.72;97721.63;4945936;29;20078;-68
2022/04/14 01:57:24;;;;;;;42.50;20.90;;;;;;;25.26;69.26;97724.13;4926903;29;20055;-67
2022/04/14 02:00:07;;;;;;;44.58;19.63;;;;;;;25.11;65.36;97723.09;4920894;29;20059;-68
2022/04/14 02:02:56;;;;;;;40.30;15.95;;;;;;;25.16;61.08;97731.34;4923184;29;20122;-67
2022/04/14 02:05:38;;;;;;;40.50;17.27;;;;;;;25.15;59.18;97732.31;4926672;29;20075;-68
2022/04/14 02:08:26;;;;;;;33.88;17.55;;;;;;;25.39;63.57;97732.38;4926876;29;20515;-67
2022/04/14 02:11:10;;;;;;;34.60;17.27;;;;;;;25.50;65.73;97734.72;4928359;29;20051;-68
2022/04/14 02:13:58;;;;;;;41.92;17.92;;;;;;;25.66;60.35;97738.38;4927612;29;20044;-68
2022/04/14 02:16:41;;;;;;;42.97;19.35;;;;;;;26.16;56.10;97735.56;4928035;29;20067;-68
2022/04/14 02:19:29;;;;;;;45.55;17.50;;;;;;;26.64;58.18;97750.53;4937787;29;20062;-67
2022/04/14 02:22:19;;;;;;;41.20;17.95;;;;;;;26.75;55.70;97758.06;4945702;28;20054;-68
2022/04/14 02:25:15;;;;;;;45.22;17.75;;;;;;;27.23;53.56;97761.53;4945611;28;20595;-67
2022/04/14 02:27:50;;;;;;;37.33;16.80;;;;;;;27.39;51.99;97762.25;4931844;29;20043;-67
2022/04/14 02:30:45;;;;;;;55.13;18.90;;;;;;;27.46;52.39;97770.31;4955181;28;20051;-66
2022/04/14 02:33:32;;;;;;;42.83;19.05;;;;;;;27.83;53.03;97764.34;4969843;28;20051;-68
2022/04/14 02:36:23;;;;;;;48.92;19.67;;;;;;;27.48;49.36;97768.34;4969450;28;20055;-67
2022/04/14 02:39:05;;;;;;;35.67;16.95;;;;;;;27.95;53.40;97765.53;4967936;28;20206;-67
2022/04/14 02:41:55;;;;;;;38.67;17.40;;;;;;;28.17;53.49;97758.63;4953771;28;20110;-67
2022/04/14 02:44:36;;;;;;;43.85;17.80;;;;;;;27.62;48.56;97772.91;4931157;29;20060;-68
2022/04/14 02:47:26;;;;;;;43.78;16.33;;;;;;;28.21;50.62;97773.16;4927841;29;20118;-67
2022/04/14 02:50:08;;;;;;;42.78;18.48;;;;;;;28.00;52.71;97767.69;4947872;29;20051;-68
2022/04/14 02:52:58;;;;;;;37.83;18.08;;;;;;;28.32;49.46;97775.38;4947685;29;20067;-67
2022/04/14 02:55:46;;;;;;;42.28;17.75;;;;;;;28.43;48.57;97785.50;4946724;29;20451;-66
2022/04/14 02:58:29;;;;;;;42.35;18.13;;;;;;;28.41;51.15;97779.59;4949250;28;20051;-66
2022/04/14 03:01:17;;;;;;;44.40;18.67;;;;;;;28.30;49.27;97782.66;4945229;28;20110;-66
2022/04/14 03:04:00;;;;;;;46.88;19.02;;;;;;;28.42;51.84;97775.91;4948168;29;20057;-67
2022/04/14 03:06:48;;;;;;;45.30;18.17;;;;;;;28.63;52.21;97782.34;4947338;28;20055;-67
2022/04/14 03:09:30;;;;;;;43.50;17.25;;;;;;;28.57;48.04;97793.69;4945086;29;20063;-68
2022/04/14 03:12:18;;;;;;;41.05;16.13;;;;;;;28.70;51.07;97800.00;4952401;28;20046;-67
2022/04/14 03:15:00;;;;;;;33.03;15.63;;;;;;;28.85;49.64;97794.72;4949464;29;20067;-67
2022/04/14 03:17:50;;;;;;;36.50;15.98;;;;;;;28.83;47.10;97797.56;4945614;28;20420;-67
2022/04/14 03:20:32;;;;;;;36.95;16.65;;;;;;;29.04;47.56;97806.63;4946981;28;20480;-67
2022/04/14 03:23:20;;;;;;;39.35;16.88;;;;;;;29.05;48.08;97801.13;4950543;28;20114;-67
2022/04/14 03:26:03;;;;;;;36.85;17.45;;;;;;;29.17;45.91;97820.88;4948231;29;20067;-67
2022/04/14 03:28:52;;;;;;;37.95;17.13;;;;;;;28.93;45.33;97815.84;4945929;29;20047;-67
2022/04/14 03:31:48;;;;;;;37.63;17.08;;;;;;;29.19;47.02;97815.38;4949377;28;20087;-67
2022/04/14 03:34:36;;;;;;;48.00;18.00;;;;;;;29.33;44.29;97817.19;4923814;29;20111;-67
2022/04/14 03:37:26;;;;;;;44.22;16.02;;;;;;;29.42;44.07;97821.41;4918158;29;20134;-67
2022/04/14 03:40:14;;;;;;;39.05;15.50;;;;;;;29.61;44.24;97826.13;4946798;29;20051;-66
2022/04/14 03:42:56;;;;;;;43.15;15.02;;;;;;;29.85;45.63;97832.13;4946836;29;20059;-67
2022/04/14 03:45:44;;;;;;;37.15;14.73;;;;;;;29.82;44.08;97840.44;4928213;29;20059;-67
2022/04/14 03:48:34;;;;;;;40.70;15.48;;;;;;;30.10;44.03;97841.38;4945753;29;20051;-66
2022/04/14 03:51:23;;;;;;;43.85;13.50;;;;;;;30.16;44.84;97843.28;4947721;29;20546;-66
2022/04/14 03:54:05;;;;;;;39.40;14.68;;;;;;;30.13;46.62;97838.34;4948227;29;20523;-67
2022/04/14 03:56:54;;;;;;;42.17;15.40;;;;;;;29.95;46.17;97829.97;4934473;29;20055;-67
2022/04/14 03:59:36;;;;;;;29.85;14.15;;;;;;;30.04;48.43;97832.34;4946650;29;20043;-68
2022/04/14 04:02:24;;;;;;;37.22;14.07;;;;;;;30.14;46.32;97832.03;4926348;29;20123;-67
2022/04/14 04:05:13;;;;;;;46.88;14.93;;;;;;;30.17;44.62;97828.16;4924741;29;20054;-67
2022/04/14 04:08:09;;;;;;;30.17;14.23;;;;;;;30.40;43.71;97836.75;4928813;29;20581;-66
2022/04/14 04:10:44;;;;;;;35.25;12.57;;;;;;;30.93;43.10;97834.47;4914444;29;20150;-66
2022/04/14 04:13:33;;;;;;;40.72;13.48;;;;;;;31.18;42.16;97833.84;4915592;29;20055;-66
2022/04/14 04:16:16;;;;;;;41.50;13.48;;;;;;;31.45;42.74;97837.44;4929565;29;20536;-66
2022/04/14 04:19:04;;;;;;;32.28;12.15;;;;;;;31.87;40.70;97831.03;4924115;29;20059;-66
2022/04/14 04:21:46;;;;;;;24.85;11.90;;;;;;;32.28;40.06;97830.91;4929238;29;20050;-67
2022/04/14 04:24:34;;;;;;;40.33;14.35;;;;;;;32.55;40.90;97829.09;4934078;29;20058;-66
2022/04/14 04:27:17;;;;;;;43.95;12.25;;;;;;;32.62;40.56;97829.91;4928236;29;20056;-66
2022/04/14 04:30:14;;;;;;;33.10;13.65;;;;;;;33.36;42.52;97828.75;4930014;29;20115;-66
2022/04/14 04:33:08;;;;;;;34.50;13.82;;;;;;;32.81;37.81;97827.41;4910046;29;20134;-66
2022/04/14 04:35:56;;;;;;;30.08;12.27;;;;;;;33.50;44.19;97830.34;4906420;29;20437;-65
2022/04/14 04:38:38;;;;;;;37.35;12.10;;;;;;;32.96;38.95;97842.19;4909786;29;20059;-65
2022/04/14 04:41:26;;;;;;;28.08;12.18;;;;;;;33.64;38.20;97842.59;4907860;29;20115;-66
2022/04/14 04:44:09;;;;;;;43.65;13.13;;;;;;;33.12;37.77;97834.75;4908846;29;20147;-65
2022/04/14 04:46:57;;;;;;;31.42;13.32;;;;;;;33.57;38.30;97828.44;4907774;29;20362;-65
2022/04/14 04:49:40;;;;;;;26.08;12.55;;;;;;;34.28;43.54;97833.59;4890891;29;20063;-65
2022/04/14 04:52:35;;;;;;;35.10;13.30;;;;;;;34.99;43.01;97837.72;4909850;29;20148;-65
2022/04/14 04:55:10;;;;;;;43.05;13.35;;;;;;;34.42;40.54;97843.16;4907929;29;20478;-65
2022/04/14 04:57:58;;;;;;;26.35;13.23;;;;;;;35.09;38.45;97841.53;4904854;29;20116;-63
2022/04/14 05:00:41;;;;;;;48.60;14.73;;;;;;;35.10;38.50;97843.19;4902959;29;20048;-64
2022/04/14 05:03:36;;;;;;;30.77;13.63;;;;;;;35.23;38.70;97839.53;4908596;29;20108;-67
2022/04/14 05:06:11;;;;;;;32.88;12.57;;;;;;;35.12;38.29;97841.06;4908915;29;20049;-67
2022/04/14 05:09:06;;;;;;;31.70;14.15;;;;;;;34.25;35.47;97843.91;4909518;29;20488;-66
2022/04/14 05:11:41;;;;;;;29.95;12.70;;;;;;;34.76;38.77;97838.38;4906766;29;20396;-67
2022/04/14 05:14:29;;;;;;;40.67;13.63;;;;;;;34.71;36.65;97843.53;4905322;29;20052;-66
2022/04/14 05:17:18;;;;;;;34.50;12.68;;;;;;;34.89;38.07;97839.06;4899885;29;20481;-68
2022/04/14 05:20:07;;;;;;;39.85;12.45;;;;;;;34.90;38.57;97839.88;4910145;29;20044;-67
2022/04/14 05:22:56;;;;;;;33.00;11.65;;;;;;;35.57;38.13;97838.09;4909143;29;20064;-67
2022/04/14 05:25:40;;;;;;;29.45;12.98;;;;;;;35.97;37.92;97844.59;4907820;29;20048;-69
2022/04/14 05:28:30;;;;;;;32.13;10.77;;;;;;;35.89;35.00;97850.28;4909482;29;20379;-67
2022/04/14 05:31:11;;;;;;;39.85;11.98;;;;;;;35.83;35.64;97845.84;4910223;28;20499;-69
2022/04/14 05:34:01;;;;;;;27.35;11.70;;;;;;;35.89;37.83;97836.88;4907988;29;20052;-68
2022/04/14 05:36:49;;;;;;;29.27;11.85;;;;;;;36.27;39.85;97835.72;4916679;29;20115;-68
2022/04/14 05:39:31;;;;;;;32.58;11.73;;;;;;;36.24;37.51;97828.16;4922552;29;20779;-67
2022/04/14 05:42:19;;;;;;;31.95;10.93;;;;;;;35.90;33.49;97827.78;4890441;29;20045;-68
2022/04/14 05:45:01;;;;;;;31.88;12.45;;;;;;;35.91;33.61;97823.25;4891183;29;20052;-69
2022/04/14 05:47:56;;;;;;;34.70;11.52;;;;;;;36.15;38.47;97824.13;4906300;29;20083;-68
2022/04/14 05:50:31;;;;;;;20.58;10.45;;;;;;;36.23;39.43;97821.13;4907109;29;20472;-68
2022/04/14 05:53:30;;;;;;;26.65;10.57;;;;;;;36.60;36.41;97825.25;4907184;29;20055;-68
2022/04/14 05:56:06;;;;;;;27.05;11.32;;;;;;;36.61;39.49;97821.53;4905159;29;20134;-68
2022/04/14 05:58:54;;;;;;;41.15;11.43;;;;;;;36.36;38.05;97812.88;4906312;29;20103;-68
2022/04/14 06:01:37;;;;;;;28.58;11.93;;;;;;;35.92;35.23;97812.25;4906122;29;20048;-68
2022/04/14 06:04:25;;;;;;;31.17;12.73;;;;;;;36.46;35.62;97812.28;4906761;29;20048;-68
2022/04/14 06:07:08;;;;;;;31.73;12.10;;;;;;;36.25;35.16;97809.09;4906453;29;20052;-65
2022/04/14 06:09:56;;;;;;;40.00;11.30;;;;;;;35.40;32.77;97805.75;4906978;29;20048;-69
2022/04/14 06:12:39;;;;;;;30.55;12.13;;;;;;;35.79;36.28;97801.75;4904342;29;20468;-68
2022/04/14 06:15:29;;;;;;;22.95;11.77;;;;;;;36.12;36.54;97797.75;4903744;29;21454;-68
2022/04/14 06:18:11;;;;;;;24.10;10.55;;;;;;;36.10;32.37;97797.97;4903829;29;20719;-67
2022/04/14 06:21:07;;;;;;;41.17;13.27;;;;;;;36.08;35.98;97793.91;4908432;29;20056;-68
2022/04/14 06:23:42;;;;;;;36.67;10.32;;;;;;;35.89;30.99;97793.97;4907655;29;20052;-68
2022/04/14 06:26:37;;;;;;;26.30;10.93;;;;;;;36.12;35.66;97784.34;4906791;29;20543;-68
2022/04/14 06:29:25;;;;;;;27.10;9.70;;;;;;;36.21;33.98;97778.44;4889943;29;20500;-69
2022/04/14 06:32:21;;;;;;;35.05;10.55;;;;;;;36.50;38.20;97781.22;4910136;28;20071;-68
2022/04/14 06:35:16;;;;;;;27.35;11.32;;;;;;;36.47;37.18;97771.81;4908234;29;20052;-68
2022/04/14 06:37:59;;;;;;;27.73;11.20;;;;;;;36.39;36.93;97774.84;4908417;29;20793;-68
2022/04/14 06:40:47;;;;;;;24.65;11.27;;;;;;;36.04;31.37;97772.91;4908248;29;20052;-67
2022/04/14 06:43:31;;;;;;;31.35;11.27;;;;;;;36.21;31.84;97766.88;4901401;29;20058;-68
2022/04/14 06:46:19;;;;;;;29.27;11.60;;;;;;;36.20;35.34;97765.25;4908480;29;20044;-67
2022/04/14 06:49:03;;;;;;;39.45;11.20;;;;;;;36.42;38.62;97753.69;4908244;29;20055;-67
2022/04/14 06:51:52;;;;;;;28.35;11.38;;;;;;;36.19;33.41;97752.88;4903219;29;20079;-68
2022/04/14 06:54:36;;;;;;;29.48;12.18;;;;;;;36.05;32.15;97758.44;4898539;29;20081;-67
2022/04/14 06:57:25;;;;;;;24.17;10.82;;;;;;;36.27;32.93;97749.84;4898106;29;20058;-68
2022/04/14 07:00:14;;;;;;;38.05;12.43;;;;;;;36.22;33.49;97741.69;4905556;29;20055;-67
2022/04/14 07:02:57;;;;;;;29.95;10.70;;;;;;;36.37;35.03;97744.72;4904266;29;20052;-67
2022/04/14 07:05:46;;;;;;;20.52;10.32;;;;;;;36.27;34.81;97739.13;4905221;29;20096;-67
2022/04/14 07:08:28;;;;;;;27.63;10.57;;;;;;;36.33;32.39;97738.16;4904772;29;20221;-68
2022/04/14 07:11:17;;;;;;;27.00;10.80;;;;;;;36.01;29.38;97738.47;4906020;29;20047;-68
2022/04/14 07:13:59;;;;;;;30.25;11.60;;;;;;;35.98;33.57;97735.47;4911285;29;20083;-67
2022/04/14 07:16:49;;;;;;;26.00;10.27;;;;;;;36.06;31.85;97732.44;4909862;29;20123;-68
2022/04/14 07:19:30;;;;;;;37.42;11.65;;;;;;;36.45;40.89;97716.72;4910583;29;20365;-68
2022/04/14 07:22:23;;;;;;;33.42;11.20;;;;;;;36.47;36.14;97717.31;4909350;29;20080;-67
2022/04/14 07:25:05;;;;;;;29.23;11.32;;;;;;;36.45;32.78;97720.22;4893614;29;20496;-67
2022/04/14 07:27:54;;;;;;;28.27;9.35;;;;;;;36.46;30.09;97719.16;4904097;29;20051;-66
2022/04/14 07:30:35;;;;;;;27.60;7.55;;;;;;;36.57;33.35;97718.31;4908142;29;20063;-69
2022/04/14 07:33:31;;;;;;;27.42;7.47;;;;;;;36.55;30.58;97709.72;4910120;29;20798;-67
2022/04/14 07:36:21;;;;;;;21.67;7.00;;;;;;;36.74;33.69;97697.78;4908811;29;20066;-67
2022/04/14 07:39:16;;;;;;;22.92;8.13;;;;;;;36.67;32.20;97701.66;4905311;29;20060;-67
2022/04/14 07:42:05;;;;;;;26.67;8.13;;;;;;;36.42;30.27;97699.19;4892728;29;20484;-67
2022/04/14 07:44:47;;;;;;;22.20;7.90;;;;;;;36.56;37.91;97691.75;4909726;29;20076;-67
2022/04/14 07:47:43;;;;;;;19.98;7.70;;;;;;;36.41;30.31;97700.25;4910870;29;20103;-68
2022/04/14 07:50:32;;;;;;;20.60;8.10;;;;;;;36.31;29.29;97692.00;4911188;29;20449;-68
2022/04/14 07:53:20;;;;;;;24.75;8.50;;;;;;;36.48;31.16;97686.72;4910946;29;20060;-67
2022/04/14 07:56:03;;;;;;;21.45;8.73;;;;;;;36.39;32.49;97679.03;4908417;29;20055;-67
2022/04/14 07:58:58;;;;;;;22.55;7.40;;;;;;;36.38;30.60;97676.59;4908903;29;20041;-68
2022/04/14 08:01:33;;;;;;;23.83;8.35;;;;;;;36.41;32.08;97682.28;4909745;29;20044;-67
2022/04/14 08:04:28;;;;;;;27.50;9.10;;;;;;;36.44;32.41;97667.59;4903721;29;20060;-66
2022/04/14 08:07:03;;;;;;;18.92;8.48;;;;;;;36.30;35.40;97669.72;4906226;29;20123;-68
2022/04/14 08:10:03;;;;;;;15.77;7.97;;;;;;;36.16;32.24;97668.25;4908946;29;20100;-66
2022/04/14 08:12:38;;;;;;;17.73;7.20;;;;;;;36.10;33.75;97663.03;4907710;29;20052;-66
2022/04/14 08:15:28;;;;;;;16.88;7.60;;;;;;;36.10;34.39;97663.03;4909560;29;20048;-68
2022/04/14 08:18:17;;;;;;;24.05;7.55;;;;;;;36.00;32.56;97658.25;4908391;29;20052;-67
2022/04/14 08:20:59;;;;;;;17.70;6.72;;;;;;;36.08;32.86;97649.06;4908552;29;20051;-68
2022/04/14 08:23:51;;;;;;;24.65;6.63;;;;;;;36.05;31.20;97653.00;4907144;29;20096;-67
2022/04/14 08:26:32;;;;;;;18.50;6.47;;;;;;;36.09;30.45;97643.44;4909370;29;20076;-71
2022/04/14 08:29:22;;;;;;;23.63;5.80;;;;;;;36.10;29.28;97644.25;4904051;29;20055;-64
2022/04/14 08:32:11;;;;;;;16.20;6.32;;;;;;;36.12;31.21;97647.53;4908459;29;20476;-65
2022/04/14 08:35:07;;;;;;;17.48;5.97;;;;;;;36.11;29.90;97640.53;4909357;29;20048;-65
2022/04/14 08:37:43;;;;;;;16.55;5.18;;;;;;;36.12;32.53;97639.47;4909120;29;20143;-66
2022/04/14 08:40:45;;;;;;;19.92;5.60;;;;;;;35.98;31.42;97633.53;4905982;29;20056;-66
2022/04/14 08:43:48;;;;;;;16.80;5.55;;;;;;;35.85;30.66;97628.38;4910635;29;20055;-65
2022/04/14 08:46:38;;;;;;;17.52;5.55;;;;;;;35.81;29.07;97628.06;4910207;29;20484;-65
2022/04/14 08:49:27;;;;;;;14.82;5.43;;;;;;;35.78;30.89;97622.31;4908495;29;20115;-67
2022/04/14 08:52:18;;;;;;;19.38;5.57;;;;;;;35.66;30.74;97619.63;4908961;29;20058;-65
2022/04/14 08:55:12;;;;;;;11.40;5.38;;;;;;;35.57;30.41;97615.66;4909314;29;20128;-65
2022/04/14 08:58:01;;;;;;;22.70;6.32;;;;;;;35.45;27.90;97610.25;4906937;29;20555;-65
2022/04/14 09:00:43;;;;;;;19.63;5.38;;;;;;;35.34;27.40;97610.25;4902596;29;20044;-65
2022/04/14 09:03:57;;;;;;;12.85;5.38;;;;;;;35.27;32.24;97603.13;4904101;29;20056;-66
2022/04/14 09:06:39;;;;;;;13.48;6.68;;;;;;;35.23;32.77;97601.13;4887906;29;20048;-66
2022/04/14 09:09:28;;;;;;;17.83;6.28;;;;;;;35.19;31.30;97592.72;4904196;29;20163;-65
2022/04/14 09:12:13;;;;;;;19.42;6.68;;;;;;;35.14;32.02;97595.25;4910147;29;20059;-65
2022/04/14 09:15:02;;;;;;;30.95;7.13;;;;;;;35.24;32.46;97578.66;4909983;29;20139;-66
2022/04/14 09:17:51;;;;;;;16.38;6.53;;;;;;;35.27;31.03;97572.84;4911504;29;20096;-67
2022/04/14 09:20:37;;;;;;;14.38;6.13;;;;;;;35.27;32.33;97573.66;4909219;29;20079;-65
2022/04/14 09:23:32;;;;;;;25.27;6.25;;;;;;;35.35;31.46;97569.03;4908486;29;20441;-65
2022/04/14 09:26:14;;;;;;;17.73;6.60;;;;;;;35.39;29.98;97565.63;4910856;29;20048;-66
2022/04/14 09:29:08;;;;;;;17.33;6.38;;;;;;;35.56;30.22;97561.22;4908698;29;20051;-63
2022/04/14 09:32:04;;;;;;;19.67;7.05;;;;;;;35.51;29.64;97557.63;4908534;29;20052;-68
2022/04/14 09:34:58;;;;;;;18.85;6.00;;;;;;;35.39;32.66;97548.75;4900440;29;20067;-65
2022/04/14 09:37:40;;;;;;;21.38;6.90;;;;;;;35.30;31.19;97546.41;4907027;29;20052;-65
2022/04/14 09:40:30;;;;;;;24.92;6.88;;;;;;;35.27;29.65;97541.53;4895035;29;20056;-65
2022/04/14 09:43:13;;;;;;;20.35;7.93;;;;;;;35.21;28.87;97536.22;4908660;29;20548;-66
2022/04/14 09:46:01;;;;;;;19.30;7.18;;;;;;;35.17;29.60;97535.06;4910056;29;20056;-66
2022/04/14 09:49:24;;;;;;;24.60;8.95;;;;;;;35.07;28.44;97519.56;4905682;29;20051;-66
2022/04/14 09:52:13;;;;;;;16.30;6.70;;;;;;;35.06;29.54;97517.09;4896872;29;20063;-66
2022/04/14 09:54:55;;;;;;;22.77;8.02;;;;;;;35.03;28.53;97515.72;4908695;29;20143;-65
2022/04/14 09:58:04;;;;;;;28.35;8.43;;;;;;;35.06;30.14;97515.25;4908721;29;20056;-66
2022/04/14 10:00:50;;;;;;;38.97;10.35;;;;;;;35.07;31.08;97508.84;4909016;29;20052;-64
2022/04/14 10:03:38;;;;;;;28.05;8.63;;;;;;;35.04;29.47;97506.63;4904824;29;20055;-64
2022/04/14 10:06:21;;;;;;;34.58;8.95;;;;;;;34.96;32.19;97496.25;4905664;29;20583;-66
2022/04/14 10:09:28;;;;;;;23.52;9.77;;;;;;;34.87;32.80;97492.28;4908537;29;20075;-66
2022/04/14 10:12:10;;;;;;;31.15;9.05;;;;;;;34.75;31.76;97488.75;4909156;29;20112;-64
2022/04/14 10:15:08;;;;;;;22.95;8.93;;;;;;;34.64;31.27;97484.16;4909339;29;20086;-65
2022/04/14 10:17:57;;;;;;;27.52;8.80;;;;;;;34.58;31.20;97475.16;4908390;29;20063;-65
2022/04/14 10:20:41;;;;;;;37.25;9.50;;;;;;;34.55;30.80;97460.41;4903973;29;20056;-66
2022/04/14 10:23:33;;;;;;;33.75;9.18;;;;;;;34.47;34.15;97465.25;4911397;29;20067;-68
2022/04/14 10:26:22;;;;;;;27.40;8.60;;;;;;;34.38;33.94;97458.59;4908773;29;20059;-67
2022/04/14 10:29:09;;;;;;;31.33;8.20;;;;;;;34.30;32.50;97453.56;4908480;29;20044;-68
2022/04/14 10:32:05;;;;;;;32.83;8.88;;;;;;;34.22;32.03;97452.00;4907758;29;20054;-68
2022/04/14 10:34:41;;;;;;;31.98;8.63;;;;;;;34.22;31.94;97446.66;4907937;29;20075;-67
2022/04/14 10:37:47;;;;;;;25.33;9.52;;;;;;;34.09;34.45;97436.94;4906014;29;20051;-66
2022/04/14 10:40:29;;;;;;;38.30;9.60;;;;;;;34.03;32.67;97431.66;4907603;29;20056;-67
2022/04/14 10:43:23;;;;;;;26.88;9.85;;;;;;;33.93;33.89;97426.03;4906268;29;20553;-66
2022/04/14 10:46:07;;;;;;;35.30;10.55;;;;;;;33.89;32.41;97424.88;4912582;29;20048;-67
2022/04/14 10:49:11;;;;;;;26.05;10.07;;;;;;;33.88;33.18;97415.22;4911157;29;20064;-67
2022/04/14 10:52:01;;;;;;;27.92;9.60;;;;;;;33.92;34.24;97416.41;4910804;29;20079;-66
2022/04/14 10:55:03;;;;;;;40.90;10.60;;;;;;;33.88;34.46;97413.34;4911299;29;20056;-67
2022/04/14 10:57:52;;;;;;;34.78;11.30;;;;;;;33.79;35.83;97407.50;4910246;29;20044;-68
2022/04/14 11:00:35;;;;;;;27.27;9.80;;;;;;;33.69;35.53;97409.84;4888095;29;20388;-66
2022/04/14 11:03:25;;;;;;;32.33;11.15;;;;;;;33.70;34.65;97408.81;4906468;29;20119;-67
2022/04/14 11:06:06;;;;;;;37.30;11.98;;;;;;;33.71;33.29;97402.44;4911110;29;20056;-67
2022/04/14 11:08:56;;;;;;;26.60;11.10;;;;;;;33.67;35.24;97409.28;4906062;29;20070;-67
2022/04/14 11:12:03;;;;;;;30.48;11.00;;;;;;;33.67;33.61;97408.47;4913430;29;20070;-68
2022/04/14 11:15:04;;;;;;;29.92;11.48;;;;;;;33.53;37.68;97407.78;4909720;29;20048;-68
2022/04/14 11:17:54;;;;;;;24.02;10.90;;;;;;;33.42;38.44;97403.19;4911069;29;20052;-68
2022/04/14 11:20:45;;;;;;;32.30;13.13;;;;;;;33.42;35.69;97397.84;4910554;29;20058;-68
2022/04/14 11:23:28;;;;;;;38.17;10.88;;;;;;;33.36;35.61;97399.56;4912531;29;20139;-68
2022/04/14 11:26:18;;;;;;;33.50;10.20;;;;;;;33.36;35.61;97398.75;4910858;29;20086;-67
2022/04/14 11:29:05;;;;;;;27.48;10.30;;;;;;;33.44;35.31;97398.44;4910754;29;20056;-67
2022/04/14 11:31:54;;;;;;;31.52;9.52;;;;;;;33.47;33.73;97406.00;4913796;29;20103;-67
2022/04/14 11:34:37;;;;;;;32.78;8.60;;;;;;;33.51;34.03;97403.72;4917645;29;20052;-67
2022/04/14 11:37:46;;;;;;;25.25;8.50;;;;;;;33.36;34.63;97399.56;4919246;29;20052;-67
2022/04/14 11:40:27;;;;;;;25.25;8.43;;;;;;;33.22;34.20;97405.25;4923110;29;22185;-67
2022/04/14 11:43:18;;;;;;;22.38;8.45;;;;;;;33.12;34.17;97404.91;4913381;29;20052;-68
2022/04/14 11:46:22;;;;;;;25.23;8.48;;;;;;;32.91;35.33;97406.94;4906178;29;20370;-66
2022/04/14 11:49:13;;;;;;;23.02;8.00;;;;;;;32.72;36.67;97402.59;4904314;29;20063;-67
2022/04/14 11:51:58;;;;;;;36.08;8.52;;;;;;;32.54;32.81;97405.16;4909462;29;20056;-68
2022/04/14 11:54:49;;;;;;;34.78;8.80;;;;;;;32.42;36.14;97407.69;4904599;29;20048;-67
2022/04/14 11:57:33;;;;;;;26.35;7.45;;;;;;;32.29;37.38;97408.63;4907025;29;20354;-67
2022/04/14 12:00:23;;;;;;;54.95;11.48;;;;;;;32.26;33.44;97414.34;4902167;29;20048;-68
2022/04/14 12:03:05;;;;;;;75.60;10.13;;;;;;;32.20;34.05;97409.91;4910130;29;20151;-67
2022/04/14 12:06:02;;;;;;;66.30;9.35;;;;;;;32.15;32.76;97419.53;4914546;28;20119;-66
2022/04/14 12:09:01;;;;;;;109.15;13.30;;;;;;;32.18;29.35;97424.47;4906330;29;20516;-68
2022/04/14 12:11:50;;;;;;;98.95;11.40;;;;;;;32.24;27.21;97431.63;4908287;29;20055;-66
2022/04/14 12:14:31;;;;;;;72.88;9.80;;;;;;;32.18;31.02;97427.94;4914129;29;20052;-67
2022/04/14 12:17:23;;;;;;;72.78;9.95;;;;;;;32.13;29.55;97425.09;4908798;29;20132;-67
2022/04/14 12:20:08;;;;;;;76.03;10.48;;;;;;;32.07;30.69;97431.28;4916835;29;20066;-67
2022/04/14 12:22:57;;;;;;;73.25;10.43;;;;;;;31.98;30.75;97432.53;4917746;29;20514;-67
2022/04/14 12:25:40;;;;;;;98.82;11.15;;;;;;;31.96;28.90;97441.78;4908215;29;20468;-65
2022/04/14 12:28:29;;;;;;;78.18;10.93;;;;;;;31.90;29.24;97443.44;4907998;29;20062;-67
2022/04/14 12:31:20;;;;;;;61.78;10.55;;;;;;;31.81;30.83;97442.03;4893016;29;20056;-66
2022/04/14 12:34:09;;;;;;;57.33;10.93;;;;;;;31.74;30.96;97441.25;4927910;29;20051;-66
2022/04/14 12:37:18;;;;;;;63.72;8.27;;;;;;;31.75;28.58;97451.69;4931041;29;20040;-67
2022/04/14 12:40:21;;;;;;;55.10;9.15;;;;;;;31.78;27.59;97459.25;4918497;28;20048;-65
2022/04/14 12:43:03;;;;;;;49.88;6.97;;;;;;;31.74;26.61;97462.56;4929368;29;20051;-66
2022/04/14 12:45:51;;;;;;;35.95;7.18;;;;;;;31.69;26.24;97465.03;4929167;29;20075;-65
2022/04/14 12:48:45;;;;;;;51.20;8.63;;;;;;;31.62;26.32;97459.72;4928483;29;20134;-67
2022/04/14 12:52:04;;;;;;;53.17;6.95;;;;;;;31.67;27.51;97456.44;4926106;29;20118;-65
2022/04/14 12:54:47;;;;;;;30.60;8.10;;;;;;;31.58;26.56;97447.00;4934249;29;20055;-66